sensor_id;sensor_type;location;lat;lon;timestamp;temperature;humidity
24678;DHT22;12800;53.094;8.778;2023-06-10T00:01:29;18.70;64.70
24678;DHT22;12800;53.094;8.778;2023-06-10T00:03:55;18.60;65.00
24678;DHT22;12800;53.094;8.778;2023-06-10T00:06:21;18.60;65.30
24678;DHT22;12800;53.094;8.778;2023-06-10T00:08:50;18.60;65.60
24678;DHT22;12800;53.094;8.778;2023-06-10T00:11:15;18.50;65.80
24678;DHT22;12800;53.094;8.778;2023-06-10T00:13:41;18.50;66.10
24678;DHT22;12800;53.094;8.778;2023-06-10T00:16:07;18.40;66.20
24678;DHT22;12800;53.094;8.778;2023-06-10T00:18:32;18.40;66.50
24678;DHT22;12800;53.094;8.778;2023-06-10T00:20:58;18.40;66.70
24678;DHT22;12800;53.094;8.778;2023-06-10T00:23:30;18.30;66.80
24678;DHT22;12800;53.094;8.778;2023-06-10T00:26:02;18.30;67.10
24678;DHT22;12800;53.094;8.778;2023-06-10T00:28:28;18.20;67.10
24678;DHT22;12800;53.094;8.778;2023-06-10T00:30:54;18.20;67.50
24678;DHT22;12800;53.094;8.778;2023-06-10T00:33:19;18.20;67.70
24678;DHT22;12800;53.094;8.778;2023-06-10T00:35:45;18.20;67.90
24678;DHT22;12800;53.094;8.778;2023-06-10T00:38:13;18.10;68.00
24678;DHT22;12800;53.094;8.778;2023-06-10T00:40:40;18.10;68.40
24678;DHT22;12800;53.094;8.778;2023-06-10T00:43:06;18.00;68.50
24678;DHT22;12800;53.094;8.778;2023-06-10T00:45:32;18.00;68.90
24678;DHT22;12800;53.094;8.778;2023-06-10T00:47:59;17.90;69.10
24678;DHT22;12800;53.094;8.778;2023-06-10T00:50:25;17.80;69.60
24678;DHT22;12800;53.094;8.778;2023-06-10T00:52:51;17.80;69.90
24678;DHT22;12800;53.094;8.778;2023-06-10T00:55:18;17.70;70.20
24678;DHT22;12800;53.094;8.778;2023-06-10T00:57:45;17.70;70.50
24678;DHT22;12800;53.094;8.778;2023-06-10T01:00:12;17.70;70.60
24678;DHT22;12800;53.094;8.778;2023-06-10T01:02:38;17.70;70.80
24678;DHT22;12800;53.094;8.778;2023-06-10T01:05:04;17.60;71.10
24678;DHT22;12800;53.094;8.778;2023-06-10T01:07:42;17.60;71.20
24678;DHT22;12800;53.094;8.778;2023-06-10T01:10:20;17.60;71.50
24678;DHT22;12800;53.094;8.778;2023-06-10T01:13:14;17.50;71.60
24678;DHT22;12800;53.094;8.778;2023-06-10T01:15:40;17.50;71.90
24678;DHT22;12800;53.094;8.778;2023-06-10T01:18:09;17.50;72.00
24678;DHT22;12800;53.094;8.778;2023-06-10T01:20:38;17.50;72.30
24678;DHT22;12800;53.094;8.778;2023-06-10T01:23:07;17.40;72.50
24678;DHT22;12800;53.094;8.778;2023-06-10T01:25:35;17.40;72.60
24678;DHT22;12800;53.094;8.778;2023-06-10T01:31:09;17.40;72.90
24678;DHT22;12800;53.094;8.778;2023-06-10T01:33:42;17.40;73.10
24678;DHT22;12800;53.094;8.778;2023-06-10T01:36:08;17.30;73.10
24678;DHT22;12800;53.094;8.778;2023-06-10T01:38:42;17.30;73.20
24678;DHT22;12800;53.094;8.778;2023-06-10T01:41:09;17.20;73.40
24678;DHT22;12800;53.094;8.778;2023-06-10T01:43:37;17.20;73.70
24678;DHT22;12800;53.094;8.778;2023-06-10T01:46:04;17.20;73.80
24678;DHT22;12800;53.094;8.778;2023-06-10T01:48:29;17.10;74.00
24678;DHT22;12800;53.094;8.778;2023-06-10T01:50:55;17.10;74.20
24678;DHT22;12800;53.094;8.778;2023-06-10T01:53:22;17.10;74.30
24678;DHT22;12800;53.094;8.778;2023-06-10T01:55:48;17.00;74.40
24678;DHT22;12800;53.094;8.778;2023-06-10T01:58:13;17.00;74.60
24678;DHT22;12800;53.094;8.778;2023-06-10T02:00:39;16.90;74.80
24678;DHT22;12800;53.094;8.778;2023-06-10T02:03:05;16.90;74.90
24678;DHT22;12800;53.094;8.778;2023-06-10T02:05:30;16.80;75.00
24678;DHT22;12800;53.094;8.778;2023-06-10T02:07:56;16.80;75.10
24678;DHT22;12800;53.094;8.778;2023-06-10T02:10:22;16.80;75.30
24678;DHT22;12800;53.094;8.778;2023-06-10T02:15:15;16.70;75.60
24678;DHT22;12800;53.094;8.778;2023-06-10T02:17:41;16.70;75.70
24678;DHT22;12800;53.094;8.778;2023-06-10T02:20:07;16.70;75.80
24678;DHT22;12800;53.094;8.778;2023-06-10T02:22:36;16.70;76.00
24678;DHT22;12800;53.094;8.778;2023-06-10T02:25:01;16.60;76.00
24678;DHT22;12800;53.094;8.778;2023-06-10T02:27:27;16.60;76.10
24678;DHT22;12800;53.094;8.778;2023-06-10T02:29:53;16.50;76.30
24678;DHT22;12800;53.094;8.778;2023-06-10T02:32:18;16.50;76.50
24678;DHT22;12800;53.094;8.778;2023-06-10T02:34:44;16.50;76.80
24678;DHT22;12800;53.094;8.778;2023-06-10T02:37:09;16.50;76.90
24678;DHT22;12800;53.094;8.778;2023-06-10T02:39:35;16.50;77.00
24678;DHT22;12800;53.094;8.778;2023-06-10T02:42:01;16.50;77.00
24678;DHT22;12800;53.094;8.778;2023-06-10T02:44:26;16.50;77.10
24678;DHT22;12800;53.094;8.778;2023-06-10T02:46:52;16.50;77.10
24678;DHT22;12800;53.094;8.778;2023-06-10T02:49:17;16.50;77.20
24678;DHT22;12800;53.094;8.778;2023-06-10T02:51:44;16.50;77.40
24678;DHT22;12800;53.094;8.778;2023-06-10T02:54:09;16.50;77.50
24678;DHT22;12800;53.094;8.778;2023-06-10T02:56:35;16.60;77.60
24678;DHT22;12800;53.094;8.778;2023-06-10T02:59:01;16.60;77.50
24678;DHT22;12800;53.094;8.778;2023-06-10T03:01:27;16.60;77.40
24678;DHT22;12800;53.094;8.778;2023-06-10T03:03:53;16.50;77.40
24678;DHT22;12800;53.094;8.778;2023-06-10T03:06:18;16.50;77.30
24678;DHT22;12800;53.094;8.778;2023-06-10T03:08:44;16.50;77.50
24678;DHT22;12800;53.094;8.778;2023-06-10T03:11:11;16.50;77.60
24678;DHT22;12800;53.094;8.778;2023-06-10T03:13:38;16.50;77.60
24678;DHT22;12800;53.094;8.778;2023-06-10T03:16:05;16.50;77.50
24678;DHT22;12800;53.094;8.778;2023-06-10T03:18:30;16.60;77.60
24678;DHT22;12800;53.094;8.778;2023-06-10T03:20:56;16.60;77.60
24678;DHT22;12800;53.094;8.778;2023-06-10T03:23:23;16.60;77.80
24678;DHT22;12800;53.094;8.778;2023-06-10T03:25:48;16.60;77.80
24678;DHT22;12800;53.094;8.778;2023-06-10T03:28:14;16.70;77.80
24678;DHT22;12800;53.094;8.778;2023-06-10T03:30:39;16.70;77.80
24678;DHT22;12800;53.094;8.778;2023-06-10T03:33:05;16.70;77.70
24678;DHT22;12800;53.094;8.778;2023-06-10T03:35:31;16.70;78.50
24678;DHT22;12800;53.094;8.778;2023-06-10T03:38:00;16.70;77.70
24678;DHT22;12800;53.094;8.778;2023-06-10T03:40:25;16.70;77.50
24678;DHT22;12800;53.094;8.778;2023-06-10T03:42:51;16.70;78.20
24678;DHT22;12800;53.094;8.778;2023-06-10T03:45:17;16.70;77.40
24678;DHT22;12800;53.094;8.778;2023-06-10T03:47:43;16.80;77.30
24678;DHT22;12800;53.094;8.778;2023-06-10T03:50:09;16.80;77.20
24678;DHT22;12800;53.094;8.778;2023-06-10T03:52:36;16.80;76.80
24678;DHT22;12800;53.094;8.778;2023-06-10T03:55:02;16.80;76.70
24678;DHT22;12800;53.094;8.778;2023-06-10T03:57:27;16.80;76.50
24678;DHT22;12800;53.094;8.778;2023-06-10T03:59:54;16.80;76.30
24678;DHT22;12800;53.094;8.778;2023-06-10T04:02:19;16.70;76.30
24678;DHT22;12800;53.094;8.778;2023-06-10T04:04:45;16.70;76.30
24678;DHT22;12800;53.094;8.778;2023-06-10T04:07:10;16.70;76.30
24678;DHT22;12800;53.094;8.778;2023-06-10T04:09:36;16.60;76.20
24678;DHT22;12800;53.094;8.778;2023-06-10T04:12:03;16.60;76.10
24678;DHT22;12800;53.094;8.778;2023-06-10T04:14:31;16.60;76.20
24678;DHT22;12800;53.094;8.778;2023-06-10T04:16:57;16.60;76.20
24678;DHT22;12800;53.094;8.778;2023-06-10T04:19:22;16.60;76.10
24678;DHT22;12800;53.094;8.778;2023-06-10T04:21:48;16.60;76.10
24678;DHT22;12800;53.094;8.778;2023-06-10T04:24:13;16.60;75.90
24678;DHT22;12800;53.094;8.778;2023-06-10T04:26:39;16.60;75.80
24678;DHT22;12800;53.094;8.778;2023-06-10T04:29:04;16.50;75.90
24678;DHT22;12800;53.094;8.778;2023-06-10T04:31:30;16.50;76.00
24678;DHT22;12800;53.094;8.778;2023-06-10T04:33:57;16.50;76.00
24678;DHT22;12800;53.094;8.778;2023-06-10T04:36:23;16.50;75.90
24678;DHT22;12800;53.094;8.778;2023-06-10T04:38:49;16.50;75.90
24678;DHT22;12800;53.094;8.778;2023-06-10T04:41:14;16.50;75.90
24678;DHT22;12800;53.094;8.778;2023-06-10T04:43:40;16.50;75.90
24678;DHT22;12800;53.094;8.778;2023-06-10T04:46:06;16.60;75.80
24678;DHT22;12800;53.094;8.778;2023-06-10T04:48:31;16.60;75.60
24678;DHT22;12800;53.094;8.778;2023-06-10T04:50:58;16.60;75.40
24678;DHT22;12800;53.094;8.778;2023-06-10T04:53:24;16.60;75.40
24678;DHT22;12800;53.094;8.778;2023-06-10T04:55:49;16.70;75.40
24678;DHT22;12800;53.094;8.778;2023-06-10T04:58:15;16.70;75.00
24678;DHT22;12800;53.094;8.778;2023-06-10T05:00:41;16.70;74.90
24678;DHT22;12800;53.094;8.778;2023-06-10T05:03:07;16.70;74.90
24678;DHT22;12800;53.094;8.778;2023-06-10T05:05:32;16.60;74.80
24678;DHT22;12800;53.094;8.778;2023-06-10T05:07:58;16.60;74.80
24678;DHT22;12800;53.094;8.778;2023-06-10T05:10:24;16.60;74.60
24678;DHT22;12800;53.094;8.778;2023-06-10T05:12:50;16.60;74.70
24678;DHT22;12800;53.094;8.778;2023-06-10T05:15:15;16.50;74.70
24678;DHT22;12800;53.094;8.778;2023-06-10T05:17:41;16.50;74.90
24678;DHT22;12800;53.094;8.778;2023-06-10T05:20:07;16.60;74.90
24678;DHT22;12800;53.094;8.778;2023-06-10T05:22:33;16.60;74.90
24678;DHT22;12800;53.094;8.778;2023-06-10T05:24:59;16.70;74.80
24678;DHT22;12800;53.094;8.778;2023-06-10T05:27:25;16.70;74.80
24678;DHT22;12800;53.094;8.778;2023-06-10T05:29:51;16.70;74.70
24678;DHT22;12800;53.094;8.778;2023-06-10T05:32:17;16.80;74.50
24678;DHT22;12800;53.094;8.778;2023-06-10T05:34:43;16.80;74.20
24678;DHT22;12800;53.094;8.778;2023-06-10T05:37:09;16.80;74.10
24678;DHT22;12800;53.094;8.778;2023-06-10T05:39:36;16.80;74.10
24678;DHT22;12800;53.094;8.778;2023-06-10T05:42:04;16.80;74.00
24678;DHT22;12800;53.094;8.778;2023-06-10T05:44:32;16.80;74.00
24678;DHT22;12800;53.094;8.778;2023-06-10T05:46:57;16.70;73.80
24678;DHT22;12800;53.094;8.778;2023-06-10T05:49:23;16.70;74.10
24678;DHT22;12800;53.094;8.778;2023-06-10T05:51:49;16.80;74.10
24678;DHT22;12800;53.094;8.778;2023-06-10T05:54:14;16.80;73.90
24678;DHT22;12800;53.094;8.778;2023-06-10T05:56:40;16.80;73.80
24678;DHT22;12800;53.094;8.778;2023-06-10T05:59:05;16.80;73.80
24678;DHT22;12800;53.094;8.778;2023-06-10T06:01:31;16.90;73.90
24678;DHT22;12800;53.094;8.778;2023-06-10T06:03:57;16.90;73.80
24678;DHT22;12800;53.094;8.778;2023-06-10T06:06:22;17.00;73.70
24678;DHT22;12800;53.094;8.778;2023-06-10T06:08:49;17.10;73.80
24678;DHT22;12800;53.094;8.778;2023-06-10T06:11:14;17.10;73.60
24678;DHT22;12800;53.094;8.778;2023-06-10T06:13:40;17.20;73.40
24678;DHT22;12800;53.094;8.778;2023-06-10T06:16:07;17.20;73.40
24678;DHT22;12800;53.094;8.778;2023-06-10T06:18:33;17.20;73.40
24678;DHT22;12800;53.094;8.778;2023-06-10T06:20:58;17.20;73.20
24678;DHT22;12800;53.094;8.778;2023-06-10T06:23:24;17.30;73.00
24678;DHT22;12800;53.094;8.778;2023-06-10T06:25:50;17.30;72.80
24678;DHT22;12800;53.094;8.778;2023-06-10T06:28:15;17.30;72.80
24678;DHT22;12800;53.094;8.778;2023-06-10T06:30:41;17.40;72.70
24678;DHT22;12800;53.094;8.778;2023-06-10T06:33:07;17.40;72.60
24678;DHT22;12800;53.094;8.778;2023-06-10T06:35:33;17.50;72.50
24678;DHT22;12800;53.094;8.778;2023-06-10T06:37:59;17.50;72.50
24678;DHT22;12800;53.094;8.778;2023-06-10T06:40:25;17.60;72.40
24678;DHT22;12800;53.094;8.778;2023-06-10T06:42:51;17.60;72.00
24678;DHT22;12800;53.094;8.778;2023-06-10T06:45:16;17.60;71.90
24678;DHT22;12800;53.094;8.778;2023-06-10T06:47:42;17.60;71.90
24678;DHT22;12800;53.094;8.778;2023-06-10T06:50:09;17.60;72.10
24678;DHT22;12800;53.094;8.778;2023-06-10T06:52:35;17.60;72.10
24678;DHT22;12800;53.094;8.778;2023-06-10T06:55:00;17.60;72.00
24678;DHT22;12800;53.094;8.778;2023-06-10T06:57:26;17.60;72.00
24678;DHT22;12800;53.094;8.778;2023-06-10T06:59:51;17.60;72.00
24678;DHT22;12800;53.094;8.778;2023-06-10T07:02:17;17.60;72.00
24678;DHT22;12800;53.094;8.778;2023-06-10T07:04:44;17.60;72.20
24678;DHT22;12800;53.094;8.778;2023-06-10T07:07:11;17.60;72.20
24678;DHT22;12800;53.094;8.778;2023-06-10T07:09:37;17.60;72.10
24678;DHT22;12800;53.094;8.778;2023-06-10T07:12:03;17.70;72.10
24678;DHT22;12800;53.094;8.778;2023-06-10T07:14:30;17.70;71.90
24678;DHT22;12800;53.094;8.778;2023-06-10T07:16:56;17.70;71.80
24678;DHT22;12800;53.094;8.778;2023-06-10T07:19:21;17.70;71.80
24678;DHT22;12800;53.094;8.778;2023-06-10T07:21:47;17.80;71.70
24678;DHT22;12800;53.094;8.778;2023-06-10T07:24:13;17.80;71.80
24678;DHT22;12800;53.094;8.778;2023-06-10T07:26:38;17.80;71.70
24678;DHT22;12800;53.094;8.778;2023-06-10T07:29:04;17.80;71.60
24678;DHT22;12800;53.094;8.778;2023-06-10T07:31:30;17.80;71.50
24678;DHT22;12800;53.094;8.778;2023-06-10T07:33:55;17.90;71.40
24678;DHT22;12800;53.094;8.778;2023-06-10T07:36:21;17.80;71.50
24678;DHT22;12800;53.094;8.778;2023-06-10T07:38:47;17.80;71.70
24678;DHT22;12800;53.094;8.778;2023-06-10T07:41:12;17.90;71.80
24678;DHT22;12800;53.094;8.778;2023-06-10T07:43:39;18.00;71.80
24678;DHT22;12800;53.094;8.778;2023-06-10T07:46:05;18.00;71.50
24678;DHT22;12800;53.094;8.778;2023-06-10T07:48:31;18.10;71.40
24678;DHT22;12800;53.094;8.778;2023-06-10T07:50:56;18.20;71.40
24678;DHT22;12800;53.094;8.778;2023-06-10T07:53:22;18.20;71.20
24678;DHT22;12800;53.094;8.778;2023-06-10T07:55:48;18.30;71.10
24678;DHT22;12800;53.094;8.778;2023-06-10T07:58:13;18.40;71.70
24678;DHT22;12800;53.094;8.778;2023-06-10T08:00:39;18.50;70.60
24678;DHT22;12800;53.094;8.778;2023-06-10T08:03:05;18.50;70.30
24678;DHT22;12800;53.094;8.778;2023-06-10T08:05:31;18.50;70.10
24678;DHT22;12800;53.094;8.778;2023-06-10T08:07:56;18.50;70.50
24678;DHT22;12800;53.094;8.778;2023-06-10T08:10:24;18.60;70.20
24678;DHT22;12800;53.094;8.778;2023-06-10T08:12:50;18.60;70.10
24678;DHT22;12800;53.094;8.778;2023-06-10T08:15:15;18.60;70.20
24678;DHT22;12800;53.094;8.778;2023-06-10T08:17:41;18.70;70.30
24678;DHT22;12800;53.094;8.778;2023-06-10T08:20:07;18.70;70.10
24678;DHT22;12800;53.094;8.778;2023-06-10T08:22:32;18.80;70.10
24678;DHT22;12800;53.094;8.778;2023-06-10T08:24:59;18.90;69.90
24678;DHT22;12800;53.094;8.778;2023-06-10T08:27:24;19.00;69.90
24678;DHT22;12800;53.094;8.778;2023-06-10T08:29:50;19.00;69.60
24678;DHT22;12800;53.094;8.778;2023-06-10T08:32:16;19.10;69.30
24678;DHT22;12800;53.094;8.778;2023-06-10T08:34:41;19.20;69.20
24678;DHT22;12800;53.094;8.778;2023-06-10T08:37:07;19.20;68.90
24678;DHT22;12800;53.094;8.778;2023-06-10T08:39:33;19.20;68.60
24678;DHT22;12800;53.094;8.778;2023-06-10T08:44:56;19.30;68.40
24678;DHT22;12800;53.094;8.778;2023-06-10T08:47:25;19.40;68.30
24678;DHT22;12800;53.094;8.778;2023-06-10T08:49:53;19.40;68.10
24678;DHT22;12800;53.094;8.778;2023-06-10T08:52:22;19.40;67.90
24678;DHT22;12800;53.094;8.778;2023-06-10T08:54:57;19.50;67.60
24678;DHT22;12800;53.094;8.778;2023-06-10T08:57:25;19.60;67.60
24678;DHT22;12800;53.094;8.778;2023-06-10T08:59:53;19.70;67.70
24678;DHT22;12800;53.094;8.778;2023-06-10T09:02:20;19.80;67.50
24678;DHT22;12800;53.094;8.778;2023-06-10T09:04:47;19.80;67.30
24678;DHT22;12800;53.094;8.778;2023-06-10T09:07:16;19.90;67.00
24678;DHT22;12800;53.094;8.778;2023-06-10T09:09:43;20.00;66.70
24678;DHT22;12800;53.094;8.778;2023-06-10T09:12:10;20.10;66.60
24678;DHT22;12800;53.094;8.778;2023-06-10T09:14:36;20.10;66.60
24678;DHT22;12800;53.094;8.778;2023-06-10T09:17:02;20.20;66.40
24678;DHT22;12800;53.094;8.778;2023-06-10T09:19:28;20.20;66.10
24678;DHT22;12800;53.094;8.778;2023-06-10T09:21:54;20.30;66.10
24678;DHT22;12800;53.094;8.778;2023-06-10T09:24:24;20.40;66.00
24678;DHT22;12800;53.094;8.778;2023-06-10T09:26:50;20.50;65.50
24678;DHT22;12800;53.094;8.778;2023-06-10T09:29:16;20.70;64.90
24678;DHT22;12800;53.094;8.778;2023-06-10T09:31:43;20.80;64.20
24678;DHT22;12800;53.094;8.778;2023-06-10T09:34:14;21.00;64.00
24678;DHT22;12800;53.094;8.778;2023-06-10T09:36:40;21.00;63.60
24678;DHT22;12800;53.094;8.778;2023-06-10T09:39:17;21.10;63.30
24678;DHT22;12800;53.094;8.778;2023-06-10T09:41:44;21.10;63.20
24678;DHT22;12800;53.094;8.778;2023-06-10T09:44:20;21.20;62.90
24678;DHT22;12800;53.094;8.778;2023-06-10T09:46:48;21.40;62.50
24678;DHT22;12800;53.094;8.778;2023-06-10T09:49:14;21.50;62.10
24678;DHT22;12800;53.094;8.778;2023-06-10T09:52:09;21.60;61.90
24678;DHT22;12800;53.094;8.778;2023-06-10T09:54:34;21.70;61.20
24678;DHT22;12800;53.094;8.778;2023-06-10T09:57:07;21.80;60.70
24678;DHT22;12800;53.094;8.778;2023-06-10T09:59:33;21.80;60.60
24678;DHT22;12800;53.094;8.778;2023-06-10T10:02:00;21.90;60.60
24678;DHT22;12800;53.094;8.778;2023-06-10T10:04:26;21.90;60.20
24678;DHT22;12800;53.094;8.778;2023-06-10T10:06:53;22.00;59.80
24678;DHT22;12800;53.094;8.778;2023-06-10T10:09:19;22.10;59.60
24678;DHT22;12800;53.094;8.778;2023-06-10T10:11:45;22.20;59.40
24678;DHT22;12800;53.094;8.778;2023-06-10T10:14:13;22.30;59.10
24678;DHT22;12800;53.094;8.778;2023-06-10T10:16:41;22.50;59.00
24678;DHT22;12800;53.094;8.778;2023-06-10T10:19:13;22.50;58.80
24678;DHT22;12800;53.094;8.778;2023-06-10T10:21:53;22.70;58.40
24678;DHT22;12800;53.094;8.778;2023-06-10T10:24:21;22.80;57.80
24678;DHT22;12800;53.094;8.778;2023-06-10T10:26:50;22.90;57.60
24678;DHT22;12800;53.094;8.778;2023-06-10T10:29:38;23.00;57.00
24678;DHT22;12800;53.094;8.778;2023-06-10T10:32:06;23.10;56.80
24678;DHT22;12800;53.094;8.778;2023-06-10T10:35:07;23.20;56.60
24678;DHT22;12800;53.094;8.778;2023-06-10T10:37:33;23.20;56.30
24678;DHT22;12800;53.094;8.778;2023-06-10T10:40:00;23.30;55.90
24678;DHT22;12800;53.094;8.778;2023-06-10T10:42:26;23.40;56.30
24678;DHT22;12800;53.094;8.778;2023-06-10T10:44:53;23.50;55.70
24678;DHT22;12800;53.094;8.778;2023-06-10T10:47:21;23.50;55.20
24678;DHT22;12800;53.094;8.778;2023-06-10T10:49:51;23.60;55.00
24678;DHT22;12800;53.094;8.778;2023-06-10T10:52:18;23.80;54.90
24678;DHT22;12800;53.094;8.778;2023-06-10T10:54:45;23.80;54.30
24678;DHT22;12800;53.094;8.778;2023-06-10T10:57:16;23.90;52.90
24678;DHT22;12800;53.094;8.778;2023-06-10T10:59:56;24.00;52.60
24678;DHT22;12800;53.094;8.778;2023-06-10T11:02:42;24.10;52.70
24678;DHT22;12800;53.094;8.778;2023-06-10T11:05:10;24.20;52.30
24678;DHT22;12800;53.094;8.778;2023-06-10T11:07:36;24.30;52.10
24678;DHT22;12800;53.094;8.778;2023-06-10T11:10:12;24.30;51.40
24678;DHT22;12800;53.094;8.778;2023-06-10T11:12:51;24.40;51.80
24678;DHT22;12800;53.094;8.778;2023-06-10T11:15:20;24.40;51.50
24678;DHT22;12800;53.094;8.778;2023-06-10T11:23:07;24.40;51.10
24678;DHT22;12800;53.094;8.778;2023-06-10T11:25:39;24.50;50.80
24678;DHT22;12800;53.094;8.778;2023-06-10T11:28:27;24.50;50.00
24678;DHT22;12800;53.094;8.778;2023-06-10T11:30:57;24.70;48.80
24678;DHT22;12800;53.094;8.778;2023-06-10T11:33:24;24.80;49.20
24678;DHT22;12800;53.094;8.778;2023-06-10T11:35:50;24.90;48.70
24678;DHT22;12800;53.094;8.778;2023-06-10T11:38:16;25.00;48.70
24678;DHT22;12800;53.094;8.778;2023-06-10T11:40:49;25.10;48.70
24678;DHT22;12800;53.094;8.778;2023-06-10T11:43:17;25.20;48.60
24678;DHT22;12800;53.094;8.778;2023-06-10T11:45:43;25.30;48.10
24678;DHT22;12800;53.094;8.778;2023-06-10T11:48:09;25.40;47.40
24678;DHT22;12800;53.094;8.778;2023-06-10T11:50:35;25.40;46.80
24678;DHT22;12800;53.094;8.778;2023-06-10T11:53:02;25.40;47.00
24678;DHT22;12800;53.094;8.778;2023-06-10T11:55:47;25.50;46.50
24678;DHT22;12800;53.094;8.778;2023-06-10T11:58:18;25.70;46.20
24678;DHT22;12800;53.094;8.778;2023-06-10T12:00:52;25.70;46.00
24678;DHT22;12800;53.094;8.778;2023-06-10T12:03:19;25.70;45.80
24678;DHT22;12800;53.094;8.778;2023-06-10T12:06:04;25.70;44.60
24678;DHT22;12800;53.094;8.778;2023-06-10T12:08:30;25.90;44.00
24678;DHT22;12800;53.094;8.778;2023-06-10T12:10:57;26.00;43.30
24678;DHT22;12800;53.094;8.778;2023-06-10T12:13:27;26.20;42.40
24678;DHT22;12800;53.094;8.778;2023-06-10T12:15:53;26.30;42.70
24678;DHT22;12800;53.094;8.778;2023-06-10T12:18:19;26.30;42.30
24678;DHT22;12800;53.094;8.778;2023-06-10T12:20:45;26.40;41.90
24678;DHT22;12800;53.094;8.778;2023-06-10T12:23:12;26.60;42.10
24678;DHT22;12800;53.094;8.778;2023-06-10T12:25:38;26.70;41.80
24678;DHT22;12800;53.094;8.778;2023-06-10T12:28:05;26.70;41.20
24678;DHT22;12800;53.094;8.778;2023-06-10T12:30:32;26.90;40.80
24678;DHT22;12800;53.094;8.778;2023-06-10T12:32:58;26.90;40.40
24678;DHT22;12800;53.094;8.778;2023-06-10T12:35:25;27.00;39.50
24678;DHT22;12800;53.094;8.778;2023-06-10T12:38:05;27.10;39.80
24678;DHT22;12800;53.094;8.778;2023-06-10T12:40:34;27.30;39.90
24678;DHT22;12800;53.094;8.778;2023-06-10T12:43:01;27.40;39.50
24678;DHT22;12800;53.094;8.778;2023-06-10T12:45:37;27.50;39.40
24678;DHT22;12800;53.094;8.778;2023-06-10T12:50:42;27.70;39.30
24678;DHT22;12800;53.094;8.778;2023-06-10T12:53:10;27.70;39.40
24678;DHT22;12800;53.094;8.778;2023-06-10T12:55:37;27.80;39.70
24678;DHT22;12800;53.094;8.778;2023-06-10T12:58:03;27.90;39.50
24678;DHT22;12800;53.094;8.778;2023-06-10T13:00:29;28.00;39.70
24678;DHT22;12800;53.094;8.778;2023-06-10T13:03:00;28.10;40.00
24678;DHT22;12800;53.094;8.778;2023-06-10T13:05:28;28.20;39.80
24678;DHT22;12800;53.094;8.778;2023-06-10T13:07:54;28.30;39.60
24678;DHT22;12800;53.094;8.778;2023-06-10T13:10:21;28.40;39.30
24678;DHT22;12800;53.094;8.778;2023-06-10T13:12:47;28.60;39.10
24678;DHT22;12800;53.094;8.778;2023-06-10T13:15:13;28.70;39.00
24678;DHT22;12800;53.094;8.778;2023-06-10T13:17:39;28.80;39.30
24678;DHT22;12800;53.094;8.778;2023-06-10T13:20:06;28.90;39.10
24678;DHT22;12800;53.094;8.778;2023-06-10T13:22:33;29.00;39.50
24678;DHT22;12800;53.094;8.778;2023-06-10T13:25:03;29.10;38.90
24678;DHT22;12800;53.094;8.778;2023-06-10T13:27:29;29.30;39.00
24678;DHT22;12800;53.094;8.778;2023-06-10T13:29:54;29.30;38.90
24678;DHT22;12800;53.094;8.778;2023-06-10T13:32:20;29.40;38.80
24678;DHT22;12800;53.094;8.778;2023-06-10T13:34:46;29.50;38.80
24678;DHT22;12800;53.094;8.778;2023-06-10T13:37:12;29.60;39.00
24678;DHT22;12800;53.094;8.778;2023-06-10T13:39:42;29.70;38.90
24678;DHT22;12800;53.094;8.778;2023-06-10T13:42:08;29.80;39.10
24678;DHT22;12800;53.094;8.778;2023-06-10T13:44:34;29.80;38.80
24678;DHT22;12800;53.094;8.778;2023-06-10T13:47:02;29.90;39.00
24678;DHT22;12800;53.094;8.778;2023-06-10T13:49:28;30.00;38.90
24678;DHT22;12800;53.094;8.778;2023-06-10T13:51:54;30.20;39.00
24678;DHT22;12800;53.094;8.778;2023-06-10T13:54:19;30.30;38.70
24678;DHT22;12800;53.094;8.778;2023-06-10T13:56:46;30.50;38.40
24678;DHT22;12800;53.094;8.778;2023-06-10T13:59:12;30.60;38.50
24678;DHT22;12800;53.094;8.778;2023-06-10T14:01:38;30.60;38.60
24678;DHT22;12800;53.094;8.778;2023-06-10T14:04:04;30.70;38.70
24678;DHT22;12800;53.094;8.778;2023-06-10T14:06:30;30.80;38.80
24678;DHT22;12800;53.094;8.778;2023-06-10T14:08:56;30.90;38.80
24678;DHT22;12800;53.094;8.778;2023-06-10T14:11:21;31.00;39.00
24678;DHT22;12800;53.094;8.778;2023-06-10T14:13:47;31.00;38.70
24678;DHT22;12800;53.094;8.778;2023-06-10T14:16:13;31.10;38.50
24678;DHT22;12800;53.094;8.778;2023-06-10T14:18:38;31.10;38.70
24678;DHT22;12800;53.094;8.778;2023-06-10T14:21:04;31.20;39.10
24678;DHT22;12800;53.094;8.778;2023-06-10T14:23:29;31.30;39.10
24678;DHT22;12800;53.094;8.778;2023-06-10T14:25:55;31.40;39.00
24678;DHT22;12800;53.094;8.778;2023-06-10T14:28:21;31.40;38.90
24678;DHT22;12800;53.094;8.778;2023-06-10T14:30:46;31.50;38.90
24678;DHT22;12800;53.094;8.778;2023-06-10T14:33:12;31.60;39.00
24678;DHT22;12800;53.094;8.778;2023-06-10T14:35:37;31.60;39.00
24678;DHT22;12800;53.094;8.778;2023-06-10T14:38:03;31.70;39.10
24678;DHT22;12800;53.094;8.778;2023-06-10T14:40:29;31.70;39.00
24678;DHT22;12800;53.094;8.778;2023-06-10T14:42:55;31.80;38.80
24678;DHT22;12800;53.094;8.778;2023-06-10T14:45:21;31.90;39.00
24678;DHT22;12800;53.094;8.778;2023-06-10T14:47:46;32.00;38.90
24678;DHT22;12800;53.094;8.778;2023-06-10T14:50:13;32.10;38.50
24678;DHT22;12800;53.094;8.778;2023-06-10T14:52:39;32.10;38.70
24678;DHT22;12800;53.094;8.778;2023-06-10T14:55:05;32.10;38.60
24678;DHT22;12800;53.094;8.778;2023-06-10T14:57:31;32.10;38.90
24678;DHT22;12800;53.094;8.778;2023-06-10T14:59:57;32.20;39.00
24678;DHT22;12800;53.094;8.778;2023-06-10T15:02:23;32.30;39.00
24678;DHT22;12800;53.094;8.778;2023-06-10T15:04:48;32.30;38.70
24678;DHT22;12800;53.094;8.778;2023-06-10T15:07:14;32.40;38.80
24678;DHT22;12800;53.094;8.778;2023-06-10T15:09:43;32.20;38.70
24678;DHT22;12800;53.094;8.778;2023-06-10T15:12:09;32.20;38.90
24678;DHT22;12800;53.094;8.778;2023-06-10T15:14:36;32.30;39.10
24678;DHT22;12800;53.094;8.778;2023-06-10T15:17:01;32.40;38.70
24678;DHT22;12800;53.094;8.778;2023-06-10T15:19:27;32.50;38.80
24678;DHT22;12800;53.094;8.778;2023-06-10T15:21:53;32.60;39.50
24678;DHT22;12800;53.094;8.778;2023-06-10T15:24:19;32.70;39.00
24678;DHT22;12800;53.094;8.778;2023-06-10T15:26:45;32.80;38.90
24678;DHT22;12800;53.094;8.778;2023-06-10T15:29:10;32.80;38.40
24678;DHT22;12800;53.094;8.778;2023-06-10T15:31:36;32.90;38.30
24678;DHT22;12800;53.094;8.778;2023-06-10T15:34:02;33.00;38.20
24678;DHT22;12800;53.094;8.778;2023-06-10T15:36:29;33.20;38.00
24678;DHT22;12800;53.094;8.778;2023-06-10T15:39:01;33.40;37.70
24678;DHT22;12800;53.094;8.778;2023-06-10T15:41:28;33.60;37.60
24678;DHT22;12800;53.094;8.778;2023-06-10T15:43:53;33.80;37.50
24678;DHT22;12800;53.094;8.778;2023-06-10T15:46:19;34.00;37.20